Главная страница
METAR-TAF:

METAR-TAF

Аэропорты :

Trenton-Mercer Airport

Трентон, Нью-Джерси, США

широта: 40-16-35N, долгота: 074-48-59W, высота над уровнем моря: 64 м

Текущие метеонаблюдения

Эта сводка был подготовлена 29 минут назад, в 20:53 UTC
Ветер 4 Узел переменных направлений
Температура 17°C
Влажность 34%
Давление 1026 hPa
Видимость: 16.1 км
ясное небо

METAR: KTTN 192053Z VRB04KT 10SM CLR 17/01 A3030 RMK AO2 SLP255 T01670006 56009

Время: 17:22 (21:22 UTC)

Прогноз

Эта сводка был подготовлена 1 час и 43 минут назад, в 19:39 UTC
Прогноз действительный с 19-го 20 UTC до 20-го 18 UTC
Ветер 7 Узел от северо-восточный
Видимость: 10 км
ясное небо
С 20-го 0000 UTC
Ветер 3 Узел от северо-восточный
Видимость: 10 км
ясное небо
С 20-го 1500 UTC
Ветер 10 Узел от северо-восточный
Видимость: 10 км
ясное небо

TAF: KTTN 191939Z 1920/2018 04007KT P6SM SKC FM200000 04003KT P6SM SKC FM201500 05010KT P6SM SKC

Метеонаблюдения и прогнозы для более 4000 аэропортов (сводки METAR и TAF).

Имеющиеся станции представлены на карте желтыми и красными точками.

Чтобы увидеть название станции, наведите на нее мышь.

Затем щелкните, чтобы увидеть метеонаблюдения и метеопрогнозы.

Управление картой: чтобы увеличить масштаб, щелкните зеленые кнопки с черным крестиком; чтобы уменьшить масштаб, щелкните зеленую кнопку с тире; для просмотра соседних карт щелкайте зеленые стрелки.


METAR-TAF: